ADDS METAR Data INFO
IDs: Format: Raw Decoded Include TAF

Data at: 0106 UTC 20 Jul 2018

METAR for:KX60 (Williston Muni, FL, US)
Text:KX60 200055Z AUTO 00000KT 10SM 27/27 A2995 RMK A01
Temperature: 27.0°C ( 81°F)
Dewpoint: 27.0°C ( 81°F) [RH = 100%]
Pressure (altimeter):29.95 inches Hg (1014.3 mb)
Winds:calm
Visibility:10 or more sm (16+ km)
QC Flag:automated observation with no human augmentation